sensor_id;sensor_type;location;lat;lon;timestamp;pressure;altitude;pressure_sealevel;temperature;humidity
55068;BME280;40965;52.368;9.712;2023-02-08T00:00:46;103353.72;;;-3.76;100.00
55068;BME280;40965;52.368;9.712;2023-02-08T00:03:13;103349.34;;;-3.77;100.00
55068;BME280;40965;52.368;9.712;2023-02-08T00:05:39;103349.06;;;-3.80;100.00
55068;BME280;40965;52.368;9.712;2023-02-08T00:08:06;103345.47;;;-3.83;100.00
55068;BME280;40965;52.368;9.712;2023-02-08T00:10:33;103344.97;;;-3.78;100.00
55068;BME280;40965;52.368;9.712;2023-02-08T00:13:00;103336.69;;;-3.76;100.00
55068;BME280;40965;52.368;9.712;2023-02-08T00:15:29;103338.34;;;-3.76;100.00
55068;BME280;40965;52.368;9.712;2023-02-08T00:17:55;103337.16;;;-3.80;100.00
55068;BME280;40965;52.368;9.712;2023-02-08T00:20:22;103337.16;;;-3.80;100.00
55068;BME280;40965;52.368;9.712;2023-02-08T00:22:48;103333.41;;;-3.84;100.00
55068;BME280;40965;52.368;9.712;2023-02-08T00:25:24;103335.69;;;-3.87;100.00
55068;BME280;40965;52.368;9.712;2023-02-08T00:27:51;103330.13;;;-3.91;100.00
55068;BME280;40965;52.368;9.712;2023-02-08T00:30:19;103333.47;;;-3.92;100.00
55068;BME280;40965;52.368;9.712;2023-02-08T00:32:46;103329.88;;;-3.94;100.00
55068;BME280;40965;52.368;9.712;2023-02-08T00:35:13;103327.56;;;-3.91;100.00
55068;BME280;40965;52.368;9.712;2023-02-08T00:37:39;103324.00;;;-3.93;100.00
55068;BME280;40965;52.368;9.712;2023-02-08T00:40:06;103327.31;;;-3.94;100.00
55068;BME280;40965;52.368;9.712;2023-02-08T00:42:33;103324.00;;;-3.93;100.00
55068;BME280;40965;52.368;9.712;2023-02-08T00:45:15;103322.19;;;-3.94;100.00
55068;BME280;40965;52.368;9.712;2023-02-08T00:47:41;103316.31;;;-3.93;100.00
55068;BME280;40965;52.368;9.712;2023-02-08T00:50:09;103322.94;;;-3.95;100.00
55068;BME280;40965;52.368;9.712;2023-02-08T00:52:36;103324.31;;;-3.99;100.00
55068;BME280;40965;52.368;9.712;2023-02-08T00:55:03;103325.09;;;-4.00;100.00
55068;BME280;40965;52.368;9.712;2023-02-08T00:57:32;103317.41;;;-4.00;100.00
55068;BME280;40965;52.368;9.712;2023-02-08T00:59:59;103315.59;;;-4.01;100.00
55068;BME280;40965;52.368;9.712;2023-02-08T01:02:26;103315.88;;;-3.98;100.00
55068;BME280;40965;52.368;9.712;2023-02-08T01:04:52;103319.97;;;-4.00;100.00
55068;BME280;40965;52.368;9.712;2023-02-08T01:07:19;103325.09;;;-4.00;100.00
55068;BME280;40965;52.368;9.712;2023-02-08T01:09:45;103328.41;;;-4.01;100.00
55068;BME280;40965;52.368;9.712;2023-02-08T01:12:12;103329.91;;;-4.03;100.00
55068;BME280;40965;52.368;9.712;2023-02-08T01:14:39;103332.19;;;-4.06;100.00
55068;BME280;40965;52.368;9.712;2023-02-08T01:17:06;103331.88;;;-4.09;100.00
55068;BME280;40965;52.368;9.712;2023-02-08T01:19:33;103327.81;;;-4.07;100.00
55068;BME280;40965;52.368;9.712;2023-02-08T01:22:00;103324.91;;;-4.02;100.00
55068;BME280;40965;52.368;9.712;2023-02-08T01:24:26;103321.59;;;-4.01;100.00
55068;BME280;40965;52.368;9.712;2023-02-08T01:26:52;103317.25;;;-4.02;100.00
55068;BME280;40965;52.368;9.712;2023-02-08T01:29:19;103315.03;;;-4.07;100.00
55068;BME280;40965;52.368;9.712;2023-02-08T01:31:46;103313.81;;;-4.11;100.00
55068;BME280;40965;52.368;9.712;2023-02-08T01:34:12;103317.31;;;-4.10;100.00
55068;BME280;40965;52.368;9.712;2023-02-08T01:36:39;103320.13;;;-4.07;100.00
55068;BME280;40965;52.368;9.712;2023-02-08T01:39:07;103312.03;;;-4.12;100.00
55068;BME280;40965;52.368;9.712;2023-02-08T01:41:38;103316.09;;;-4.14;100.00
55068;BME280;40965;52.368;9.712;2023-02-08T01:46:45;103319.28;;;-4.17;100.00
55068;BME280;40965;52.368;9.712;2023-02-08T01:49:24;103317.00;;;-4.13;100.00
55068;BME280;40965;52.368;9.712;2023-02-08T01:52:00;103318.31;;;-4.08;100.00
55068;BME280;40965;52.368;9.712;2023-02-08T01:54:37;103306.59;;;-4.06;100.00
55068;BME280;40965;52.368;9.712;2023-02-08T01:57:06;103298.91;;;-4.06;100.00
55068;BME280;40965;52.368;9.712;2023-02-08T01:59:39;103296.50;;;-4.05;100.00
55068;BME280;40965;52.368;9.712;2023-02-08T02:02:14;103291.66;;;-4.02;100.00
55068;BME280;40965;52.368;9.712;2023-02-08T02:04:42;103293.94;;;-4.05;100.00
55068;BME280;40965;52.368;9.712;2023-02-08T02:07:09;103291.25;;;-4.06;100.00
55068;BME280;40965;52.368;9.712;2023-02-08T02:09:43;103291.25;;;-4.06;100.00
55068;BME280;40965;52.368;9.712;2023-02-08T02:12:13;103290.06;;;-4.10;100.00
55068;BME280;40965;52.368;9.712;2023-02-08T02:14:40;103290.66;;;-4.12;100.00
55068;BME280;40965;52.368;9.712;2023-02-08T02:17:10;103288.72;;;-4.15;100.00
55068;BME280;40965;52.368;9.712;2023-02-08T02:20:14;103292.63;;;-4.19;100.00
55068;BME280;40965;52.368;9.712;2023-02-08T02:26:08;103297.63;;;-4.20;100.00
55068;BME280;40965;52.368;9.712;2023-02-08T02:29:06;103286.50;;;-4.21;100.00
55068;BME280;40965;52.368;9.712;2023-02-08T02:31:56;103285.56;;;-4.21;100.00
55068;BME280;40965;52.368;9.712;2023-02-08T02:34:52;103287.38;;;-4.20;100.00
55068;BME280;40965;52.368;9.712;2023-02-08T02:37:46;103285.88;;;-4.18;100.00
55068;BME280;40965;52.368;9.712;2023-02-08T02:40:32;103276.53;;;-4.18;100.00
55068;BME280;40965;52.368;9.712;2023-02-08T02:49:31;103280.91;;;-4.17;100.00
55068;BME280;40965;52.368;9.712;2023-02-08T02:52:07;103278.97;;;-4.19;100.00
55068;BME280;40965;52.368;9.712;2023-02-08T02:54:49;103282.75;;;-4.24;100.00
55068;BME280;40965;52.368;9.712;2023-02-08T02:57:24;103281.56;;;-4.28;100.00
55068;BME280;40965;52.368;9.712;2023-02-08T02:59:53;103275.41;;;-4.30;100.00
55068;BME280;40965;52.368;9.712;2023-02-08T03:02:20;103276.91;;;-4.32;100.00
55068;BME280;40965;52.368;9.712;2023-02-08T03:04:49;103283.84;;;-4.31;100.00
55068;BME280;40965;52.368;9.712;2023-02-08T03:10:00;103288.81;;;-4.33;100.00
55068;BME280;40965;52.368;9.712;2023-02-08T03:12:50;103284.44;;;-4.34;100.00
55068;BME280;40965;52.368;9.712;2023-02-08T03:15:48;103279.06;;;-4.37;100.00
55068;BME280;40965;52.368;9.712;2023-02-08T03:21:50;103280.28;;;-4.42;100.00
55068;BME280;40965;52.368;9.712;2023-02-08T03:24:42;103273.50;;;-4.41;100.00
55068;BME280;40965;52.368;9.712;2023-02-08T03:31:23;103279.34;;;-4.42;100.00
55068;BME280;40965;52.368;9.712;2023-02-08T03:33:34;103286.00;;;-4.44;100.00
55068;BME280;40965;52.368;9.712;2023-02-08T03:36:33;103280.41;;;-4.40;100.00
55068;BME280;40965;52.368;9.712;2023-02-08T03:39:16;103279.97;;;-4.45;100.00
55068;BME280;40965;52.368;9.712;2023-02-08T03:41:48;103278.00;;;-4.47;100.00
55068;BME280;40965;52.368;9.712;2023-02-08T03:44:22;103281.19;;;-4.50;100.00
55068;BME280;40965;52.368;9.712;2023-02-08T03:46:57;103281.31;;;-4.49;100.00
55068;BME280;40965;52.368;9.712;2023-02-08T03:49:29;103271.88;;;-4.50;100.00
55068;BME280;40965;52.368;9.712;2023-02-08T03:52:00;103282.72;;;-4.52;100.00
55068;BME280;40965;52.368;9.712;2023-02-08T03:54:32;103285.28;;;-4.52;100.00
55068;BME280;40965;52.368;9.712;2023-02-08T03:57:12;103282.72;;;-4.52;100.00
55068;BME280;40965;52.368;9.712;2023-02-08T03:59:47;103288.25;;;-4.56;100.00
55068;BME280;40965;52.368;9.712;2023-02-08T04:02:17;103283.00;;;-4.58;100.00
55068;BME280;40965;52.368;9.712;2023-02-08T04:04:48;103285.00;;;-4.64;100.00
55068;BME280;40965;52.368;9.712;2023-02-08T04:07:16;103285.16;;;-4.62;100.00
55068;BME280;40965;52.368;9.712;2023-02-08T04:09:44;103282.00;;;-4.69;100.00
55068;BME280;40965;52.368;9.712;2023-02-08T04:12:10;103276.28;;;-4.75;100.00
55068;BME280;40965;52.368;9.712;2023-02-08T04:14:37;103269.81;;;-4.71;100.00
55068;BME280;40965;52.368;9.712;2023-02-08T04:17:03;103278.38;;;-4.71;100.00
55068;BME280;40965;52.368;9.712;2023-02-08T04:19:30;103284.56;;;-4.69;100.00
55068;BME280;40965;52.368;9.712;2023-02-08T04:21:56;103277.63;;;-4.70;100.00
55068;BME280;40965;52.368;9.712;2023-02-08T04:24:23;103280.31;;;-4.68;100.00
55068;BME280;40965;52.368;9.712;2023-02-08T04:26:49;103282.88;;;-4.68;100.00
55068;BME280;40965;52.368;9.712;2023-02-08T04:29:16;103286.03;;;-4.71;100.00
55068;BME280;40965;52.368;9.712;2023-02-08T04:31:43;103288.47;;;-4.72;100.00
55068;BME280;40965;52.368;9.712;2023-02-08T04:34:09;103292.22;;;-4.69;100.00
55068;BME280;40965;52.368;9.712;2023-02-08T04:36:36;103289.19;;;-4.65;100.00
55068;BME280;40965;52.368;9.712;2023-02-08T04:39:02;103284.09;;;-4.65;100.00
55068;BME280;40965;52.368;9.712;2023-02-08T04:41:29;103285.00;;;-4.64;100.00
55068;BME280;40965;52.368;9.712;2023-02-08T04:43:55;103285.28;;;-4.61;100.00
55068;BME280;40965;52.368;9.712;2023-02-08T04:46:22;103287.84;;;-4.61;100.00
55068;BME280;40965;52.368;9.712;2023-02-08T04:48:49;103279.28;;;-4.61;100.00
55068;BME280;40965;52.368;9.712;2023-02-08T04:51:15;103286.94;;;-4.61;100.00
55068;BME280;40965;52.368;9.712;2023-02-08T04:53:41;103286.16;;;-4.60;100.00
55068;BME280;40965;52.368;9.712;2023-02-08T04:56:08;103286.16;;;-4.60;100.00
55068;BME280;40965;52.368;9.712;2023-02-08T04:58:35;103291.28;;;-4.60;100.00
55068;BME280;40965;52.368;9.712;2023-02-08T05:01:05;103291.28;;;-4.60;100.00
55068;BME280;40965;52.368;9.712;2023-02-08T05:03:34;103298.94;;;-4.60;100.00
55068;BME280;40965;52.368;9.712;2023-02-08T05:06:01;103302.13;;;-4.63;100.00
55068;BME280;40965;52.368;9.712;2023-02-08T05:08:27;103305.44;;;-4.64;100.00
55068;BME280;40965;52.368;9.712;2023-02-08T05:10:54;103301.69;;;-4.68;100.00
55068;BME280;40965;52.368;9.712;2023-02-08T05:13:20;103305.44;;;-4.64;100.00
55068;BME280;40965;52.368;9.712;2023-02-08T05:15:47;103309.66;;;-4.65;100.00
55068;BME280;40965;52.368;9.712;2023-02-08T05:18:13;103308.75;;;-4.65;100.00
55068;BME280;40965;52.368;9.712;2023-02-08T05:20:55;103307.53;;;-4.60;100.00
55068;BME280;40965;52.368;9.712;2023-02-08T05:23:23;103300.00;;;-4.58;100.00
55068;BME280;40965;52.368;9.712;2023-02-08T05:25:57;103306.00;;;-4.58;100.00
55068;BME280;40965;52.368;9.712;2023-02-08T05:28:43;103301.66;;;-4.59;100.00
55068;BME280;40965;52.368;9.712;2023-02-08T05:31:26;103299.41;;;-4.56;100.00
55068;BME280;40965;52.368;9.712;2023-02-08T05:33:52;103299.53;;;-4.54;100.00
55068;BME280;40965;52.368;9.712;2023-02-08T05:36:28;103301.97;;;-4.56;100.00
55068;BME280;40965;52.368;9.712;2023-02-08T05:39:19;103296.72;;;-4.57;100.00
55068;BME280;40965;52.368;9.712;2023-02-08T05:41:45;103301.81;;;-4.57;100.00
55068;BME280;40965;52.368;9.712;2023-02-08T05:44:18;103293.84;;;-4.60;100.00
55068;BME280;40965;52.368;9.712;2023-02-08T05:46:51;103294.63;;;-4.61;100.00
55068;BME280;40965;52.368;9.712;2023-02-08T05:53:22;103306.66;;;-4.69;100.00
55068;BME280;40965;52.368;9.712;2023-02-08T05:56:50;103308.16;;;-4.71;100.00
55068;BME280;40965;52.368;9.712;2023-02-08T05:59:42;103308.63;;;-4.75;100.00
55068;BME280;40965;52.368;9.712;2023-02-08T06:02:31;103304.25;;;-4.76;100.00
55068;BME280;40965;52.368;9.712;2023-02-08T06:04:58;103307.88;;;-4.83;100.00
55068;BME280;40965;52.368;9.712;2023-02-08T06:07:25;103307.59;;;-4.86;100.00
55068;BME280;40965;52.368;9.712;2023-02-08T06:09:56;103309.22;;;-4.87;100.00
55068;BME280;40965;52.368;9.712;2023-02-08T06:12:25;103309.09;;;-4.88;100.00
55068;BME280;40965;52.368;9.712;2023-02-08T06:15:03;103317.81;;;-4.86;100.00
55068;BME280;40965;52.368;9.712;2023-02-08T06:17:36;103326.38;;;-4.86;100.00
55068;BME280;40965;52.368;9.712;2023-02-08T06:20:21;103323.69;;;-4.87;100.00
55068;BME280;40965;52.368;9.712;2023-02-08T06:23:05;103323.81;;;-4.94;100.00
55068;BME280;40965;52.368;9.712;2023-02-08T06:25:41;103320.84;;;-4.99;100.00
55068;BME280;40965;52.368;9.712;2023-02-08T06:28:08;103315.25;;;-5.04;100.00
55068;BME280;40965;52.368;9.712;2023-02-08T06:30:36;103311.22;;;-5.02;100.00
55068;BME280;40965;52.368;9.712;2023-02-08T06:33:03;103308.06;;;-4.99;100.00
55068;BME280;40965;52.368;9.712;2023-02-08T06:35:30;103315.88;;;-4.97;100.00
55068;BME280;40965;52.368;9.712;2023-02-08T06:37:57;103308.50;;;-5.03;100.00
55068;BME280;40965;52.368;9.712;2023-02-08T06:40:24;103308.06;;;-4.99;100.00
55068;BME280;40965;52.368;9.712;2023-02-08T06:42:50;103308.06;;;-4.99;100.00
55068;BME280;40965;52.368;9.712;2023-02-08T06:45:17;103312.84;;;-5.02;100.00
55068;BME280;40965;52.368;9.712;2023-02-08T06:47:43;103311.03;;;-5.03;100.00
55068;BME280;40965;52.368;9.712;2023-02-08T06:50:10;103316.94;;;-5.04;100.00
55068;BME280;40965;52.368;9.712;2023-02-08T06:52:36;103321.13;;;-5.05;100.00
55068;BME280;40965;52.368;9.712;2023-02-08T06:55:04;103314.22;;;-5.06;100.00
55068;BME280;40965;52.368;9.712;2023-02-08T06:57:30;103320.09;;;-5.07;100.00
55068;BME280;40965;52.368;9.712;2023-02-08T06:59:57;103319.63;;;-5.03;100.00
55068;BME280;40965;52.368;9.712;2023-02-08T07:02:23;103319.63;;;-5.03;100.00
55068;BME280;40965;52.368;9.712;2023-02-08T07:04:50;103323.06;;;-5.02;100.00
55068;BME280;40965;52.368;9.712;2023-02-08T07:07:16;103319.78;;;-5.01;100.00
55068;BME280;40965;52.368;9.712;2023-02-08T07:09:43;103321.13;;;-4.96;100.00
55068;BME280;40965;52.368;9.712;2023-02-08T07:12:10;103313.59;;;-4.94;100.00
55068;BME280;40965;52.368;9.712;2023-02-08T07:14:39;103313.59;;;-4.94;100.00
55068;BME280;40965;52.368;9.712;2023-02-08T07:17:07;103324.56;;;-4.87;100.00
55068;BME280;40965;52.368;9.712;2023-02-08T07:19:35;103316.28;;;-4.84;100.00
55068;BME280;40965;52.368;9.712;2023-02-08T07:22:01;103324.41;;;-4.88;100.00
55068;BME280;40965;52.368;9.712;2023-02-08T07:24:33;103324.41;;;-4.88;100.00
55068;BME280;40965;52.368;9.712;2023-02-08T07:27:04;103320.97;;;-4.89;100.00
55068;BME280;40965;52.368;9.712;2023-02-08T07:29:32;103320.81;;;-4.90;100.00
55068;BME280;40965;52.368;9.712;2023-02-08T07:32:01;103313.00;;;-4.92;100.00
55068;BME280;40965;52.368;9.712;2023-02-08T07:34:30;103314.47;;;-4.85;100.00
55068;BME280;40965;52.368;9.712;2023-02-08T07:36:58;103305.47;;;-4.82;100.00
55068;BME280;40965;52.368;9.712;2023-02-08T07:39:25;103310.13;;;-4.77;100.00
55068;BME280;40965;52.368;9.712;2023-02-08T07:41:55;103306.22;;;-4.74;100.00
55068;BME280;40965;52.368;9.712;2023-02-08T07:44:22;103304.25;;;-4.68;100.00
55068;BME280;40965;52.368;9.712;2023-02-08T07:46:49;103313.13;;;-4.64;100.00
55068;BME280;40965;52.368;9.712;2023-02-08T07:49:15;103309.19;;;-4.60;100.00
55068;BME280;40965;52.368;9.712;2023-02-08T07:51:42;103306.75;;;-4.59;100.00
55068;BME280;40965;52.368;9.712;2023-02-08T07:54:08;103310.25;;;-4.58;100.00
55068;BME280;40965;52.368;9.712;2023-02-08T07:56:35;103315.03;;;-4.53;100.00
55068;BME280;40965;52.368;9.712;2023-02-08T07:59:01;103307.81;;;-4.48;100.00
55068;BME280;40965;52.368;9.712;2023-02-08T08:01:28;103306.88;;;-4.40;100.00
55068;BME280;40965;52.368;9.712;2023-02-08T08:03:54;103304.28;;;-4.31;100.00
55068;BME280;40965;52.368;9.712;2023-02-08T08:06:22;103306.22;;;-4.20;100.00
55068;BME280;40965;52.368;9.712;2023-02-08T08:08:49;103295.06;;;-4.20;100.00
55068;BME280;40965;52.368;9.712;2023-02-08T08:11:17;103298.38;;;-4.21;100.00
55068;BME280;40965;52.368;9.712;2023-02-08T08:13:44;103309.78;;;-4.18;100.00
55068;BME280;40965;52.368;9.712;2023-02-08T08:16:11;103311.59;;;-4.17;100.00
55068;BME280;40965;52.368;9.712;2023-02-08T08:18:37;103309.47;;;-4.12;100.00
55068;BME280;40965;52.368;9.712;2023-02-08T08:21:04;103313.81;;;-4.11;100.00
55068;BME280;40965;52.368;9.712;2023-02-08T08:23:30;103302.09;;;-4.09;100.00
55068;BME280;40965;52.368;9.712;2023-02-08T08:26:27;103301.88;;;-4.02;100.00
55068;BME280;40965;52.368;9.712;2023-02-08T08:28:54;103300.66;;;-3.96;100.00
55068;BME280;40965;52.368;9.712;2023-02-08T08:31:21;103303.19;;;-3.88;100.00
55068;BME280;40965;52.368;9.712;2023-02-08T08:33:48;103292.91;;;-3.79;100.00
55068;BME280;40965;52.368;9.712;2023-02-08T08:36:14;103297.97;;;-3.70;98.43
55068;BME280;40965;52.368;9.712;2023-02-08T08:38:41;103289.03;;;-3.65;97.71
55068;BME280;40965;52.368;9.712;2023-02-08T08:41:09;103293.22;;;-3.57;96.91
55068;BME280;40965;52.368;9.712;2023-02-08T08:43:38;103293.59;;;-3.52;95.19
55068;BME280;40965;52.368;9.712;2023-02-08T08:46:06;103293.78;;;-3.51;94.94
55068;BME280;40965;52.368;9.712;2023-02-08T08:48:34;103294.19;;;-3.46;95.90
55068;BME280;40965;52.368;9.712;2023-02-08T08:51:01;103287.19;;;-3.38;95.34
55068;BME280;40965;52.368;9.712;2023-02-08T08:53:27;103283.03;;;-3.27;95.11
55068;BME280;40965;52.368;9.712;2023-02-08T08:55:55;103287.03;;;-3.21;94.28
55068;BME280;40965;52.368;9.712;2023-02-08T08:58:22;103283.38;;;-3.14;93.88
55068;BME280;40965;52.368;9.712;2023-02-08T09:00:48;103279.06;;;-3.05;92.60
55068;BME280;40965;52.368;9.712;2023-02-08T09:03:14;103272.06;;;-2.97;91.36
55068;BME280;40965;52.368;9.712;2023-02-08T09:05:41;103280.03;;;-2.94;91.17
55068;BME280;40965;52.368;9.712;2023-02-08T09:08:07;103275.06;;;-2.82;90.77
55068;BME280;40965;52.368;9.712;2023-02-08T09:10:34;103276.63;;;-2.74;90.01
55068;BME280;40965;52.368;9.712;2023-02-08T09:13:00;103279.13;;;-2.65;89.09
55068;BME280;40965;52.368;9.712;2023-02-08T09:15:27;103276.97;;;-2.60;89.73
55068;BME280;40965;52.368;9.712;2023-02-08T09:17:53;103280.31;;;-2.51;88.09
55068;BME280;40965;52.368;9.712;2023-02-08T09:20:20;103286.25;;;-2.42;87.83
55068;BME280;40965;52.368;9.712;2023-02-08T09:22:47;103289.84;;;-2.40;88.53
55068;BME280;40965;52.368;9.712;2023-02-08T09:25:14;103288.31;;;-2.38;88.12
55068;BME280;40965;52.368;9.712;2023-02-08T09:27:41;103299.34;;;-2.28;88.01
55068;BME280;40965;52.368;9.712;2023-02-08T09:30:08;103295.66;;;-2.22;87.41
55068;BME280;40965;52.368;9.712;2023-02-08T09:32:34;103304.63;;;-2.17;87.42
55068;BME280;40965;52.368;9.712;2023-02-08T09:35:04;103299.53;;;-2.06;86.88
55068;BME280;40965;52.368;9.712;2023-02-08T09:37:31;103294.53;;;-1.94;86.37
55068;BME280;40965;52.368;9.712;2023-02-08T09:39:58;103295.59;;;-1.82;84.76
55068;BME280;40965;52.368;9.712;2023-02-08T09:42:39;103299.69;;;-1.74;84.52
55068;BME280;40965;52.368;9.712;2023-02-08T09:45:32;103301.22;;;-1.55;82.20
55068;BME280;40965;52.368;9.712;2023-02-08T09:48:23;103284.03;;;-1.46;81.67
55068;BME280;40965;52.368;9.712;2023-02-08T09:51:03;103291.97;;;-1.33;79.19
55068;BME280;40965;52.368;9.712;2023-02-08T09:53:35;103294.25;;;-1.25;79.08
55068;BME280;40965;52.368;9.712;2023-02-08T09:56:08;103285.75;;;-1.14;77.38
55068;BME280;40965;52.368;9.712;2023-02-08T09:58:51;103294.47;;;-1.02;76.32
55068;BME280;40965;52.368;9.712;2023-02-08T10:01:24;103287.25;;;-0.95;75.65
55068;BME280;40965;52.368;9.712;2023-02-08T10:03:56;103296.84;;;-0.82;75.32
55068;BME280;40965;52.368;9.712;2023-02-08T10:06:25;103302.50;;;-0.76;73.20
55068;BME280;40965;52.368;9.712;2023-02-08T10:08:52;103291.78;;;-0.71;73.91
55068;BME280;40965;52.368;9.712;2023-02-08T10:11:34;103291.13;;;-0.68;74.22
55068;BME280;40965;52.368;9.712;2023-02-08T10:17:35;103287.75;;;-0.57;73.70
55068;BME280;40965;52.368;9.712;2023-02-08T10:20:21;103282.06;;;-0.53;73.74
55068;BME280;40965;52.368;9.712;2023-02-08T10:26:00;103265.13;;;-0.39;71.54
55068;BME280;40965;52.368;9.712;2023-02-08T10:31:47;103271.75;;;-0.08;69.78
55068;BME280;40965;52.368;9.712;2023-02-08T10:34:59;103265.06;;;-0.06;69.08
55068;BME280;40965;52.368;9.712;2023-02-08T10:37:33;103260.25;;;-0.02;69.25
55068;BME280;40965;52.368;9.712;2023-02-08T10:42:48;103258.50;;;0.09;67.91
55068;BME280;40965;52.368;9.712;2023-02-08T10:45:40;103260.41;;;0.12;68.53
55068;BME280;40965;52.368;9.712;2023-02-08T10:48:28;103254.72;;;0.16;68.41
55068;BME280;40965;52.368;9.712;2023-02-08T10:51:00;103255.63;;;0.28;66.93
55068;BME280;40965;52.368;9.712;2023-02-08T10:53:27;103256.75;;;0.32;67.48
55068;BME280;40965;52.368;9.712;2023-02-08T10:55:53;103257.13;;;0.37;66.46
55068;BME280;40965;52.368;9.712;2023-02-08T10:58:23;103257.44;;;0.41;66.73
55068;BME280;40965;52.368;9.712;2023-02-08T11:00:50;103247.69;;;0.49;65.23
55068;BME280;40965;52.368;9.712;2023-02-08T11:03:22;103254.22;;;0.56;62.66
55068;BME280;40965;52.368;9.712;2023-02-08T11:05:51;103251.41;;;0.53;63.29
55068;BME280;40965;52.368;9.712;2023-02-08T11:08:20;103246.38;;;0.54;61.95
55068;BME280;40965;52.368;9.712;2023-02-08T11:13:26;103235.06;;;0.76;61.17
55068;BME280;40965;52.368;9.712;2023-02-08T11:16:24;103234.59;;;0.70;60.95
55068;BME280;40965;52.368;9.712;2023-02-08T11:18:59;103238.31;;;0.73;59.96
55068;BME280;40965;52.368;9.712;2023-02-08T11:21:31;103241.22;;;0.78;59.90
55068;BME280;40965;52.368;9.712;2023-02-08T11:24:27;103238.97;;;0.82;58.99
55068;BME280;40965;52.368;9.712;2023-02-08T11:27:00;103233.47;;;0.90;58.65
55068;BME280;40965;52.368;9.712;2023-02-08T11:29:29;103229.88;;;0.99;59.58
55068;BME280;40965;52.368;9.712;2023-02-08T11:32:02;103225.47;;;1.10;59.14
55068;BME280;40965;52.368;9.712;2023-02-08T11:34:40;103228.50;;;1.17;59.33
55068;BME280;40965;52.368;9.712;2023-02-08T11:37:19;103234.56;;;1.17;59.79
55068;BME280;40965;52.368;9.712;2023-02-08T11:39:52;103235.34;;;1.28;58.33
55068;BME280;40965;52.368;9.712;2023-02-08T11:42:23;103239.59;;;1.27;59.08
55068;BME280;40965;52.368;9.712;2023-02-08T11:44:52;103243.97;;;1.28;60.23
55068;BME280;40965;52.368;9.712;2023-02-08T11:47:25;103236.91;;;1.26;60.39
55068;BME280;40965;52.368;9.712;2023-02-08T11:49:56;103240.50;;;1.28;60.69
55068;BME280;40965;52.368;9.712;2023-02-08T11:52:27;103246.53;;;1.28;61.38
55068;BME280;40965;52.368;9.712;2023-02-08T11:58:08;103243.50;;;1.34;61.12
55068;BME280;40965;52.368;9.712;2023-02-08T12:00:58;103236.09;;;1.39;60.67
55068;BME280;40965;52.368;9.712;2023-02-08T12:03:31;103228.31;;;1.51;60.81
55068;BME280;40965;52.368;9.712;2023-02-08T12:09:06;103218.94;;;1.64;60.04
55068;BME280;40965;52.368;9.712;2023-02-08T12:11:47;103222.41;;;1.65;60.69
55068;BME280;40965;52.368;9.712;2023-02-08T12:19:56;103222.00;;;1.84;56.60
55068;BME280;40965;52.368;9.712;2023-02-08T12:22:27;103216.25;;;1.88;57.59
55068;BME280;40965;52.368;9.712;2023-02-08T12:25:31;103210.41;;;1.91;57.99
55068;BME280;40965;52.368;9.712;2023-02-08T12:28:24;103201.53;;;1.87;59.52
55068;BME280;40965;52.368;9.712;2023-02-08T12:31:06;103204.81;;;1.85;59.54
55068;BME280;40965;52.368;9.712;2023-02-08T12:36:31;103192.91;;;1.87;59.83
55068;BME280;40965;52.368;9.712;2023-02-08T12:39:25;103189.63;;;1.89;58.38
55068;BME280;40965;52.368;9.712;2023-02-08T12:45:46;103184.16;;;1.98;57.02
55068;BME280;40965;52.368;9.712;2023-02-08T12:51:55;103175.34;;;1.94;56.15
55068;BME280;40965;52.368;9.712;2023-02-08T12:54:54;103174.66;;;1.97;56.32
55068;BME280;40965;52.368;9.712;2023-02-08T12:57:25;103164.53;;;2.13;53.91
55068;BME280;40965;52.368;9.712;2023-02-08T12:59:58;103163.03;;;2.17;54.02
55068;BME280;40965;52.368;9.712;2023-02-08T13:02:52;103154.50;;;2.18;53.08
55068;BME280;40965;52.368;9.712;2023-02-08T13:05:29;103149.09;;;2.15;53.80
55068;BME280;40965;52.368;9.712;2023-02-08T13:14:13;103129.53;;;2.19;53.72
55068;BME280;40965;52.368;9.712;2023-02-08T13:16:54;103125.47;;;2.22;53.91
55068;BME280;40965;52.368;9.712;2023-02-08T13:19:52;103126.25;;;2.21;53.51
55068;BME280;40965;52.368;9.712;2023-02-08T13:22:20;103118.13;;;2.28;52.46
55068;BME280;40965;52.368;9.712;2023-02-08T13:24:48;103111.44;;;2.32;53.42
55068;BME280;40965;52.368;9.712;2023-02-08T13:27:18;103107.78;;;2.42;52.41
55068;BME280;40965;52.368;9.712;2023-02-08T13:29:49;103105.19;;;2.42;52.21
55068;BME280;40965;52.368;9.712;2023-02-08T13:32:27;103099.41;;;2.46;52.46
55068;BME280;40965;52.368;9.712;2023-02-08T13:35:01;103103.59;;;2.44;52.74
55068;BME280;40965;52.368;9.712;2023-02-08T13:37:33;103104.78;;;2.36;53.59
55068;BME280;40965;52.368;9.712;2023-02-08T13:40:07;103101.59;;;2.40;53.07
55068;BME280;40965;52.368;9.712;2023-02-08T13:42:48;103100.81;;;2.41;52.51
55068;BME280;40965;52.368;9.712;2023-02-08T13:45:24;103093.84;;;2.40;52.66
55068;BME280;40965;52.368;9.712;2023-02-08T13:47:58;103095.44;;;2.38;51.96
55068;BME280;40965;52.368;9.712;2023-02-08T13:50:43;103085.81;;;2.35;52.99
55068;BME280;40965;52.368;9.712;2023-02-08T13:56:10;103084.09;;;2.36;52.00
55068;BME280;40965;52.368;9.712;2023-02-08T14:01:31;103077.84;;;2.32;51.32
55068;BME280;40965;52.368;9.712;2023-02-08T14:06:46;103073.69;;;2.34;51.61
55068;BME280;40965;52.368;9.712;2023-02-08T14:09:31;103067.72;;;2.35;51.26
55068;BME280;40965;52.368;9.712;2023-02-08T14:12:40;103060.47;;;2.29;51.58
55068;BME280;40965;52.368;9.712;2023-02-08T14:17:44;103053.88;;;2.35;52.38
55068;BME280;40965;52.368;9.712;2023-02-08T14:20:25;103039.69;;;2.41;51.55
55068;BME280;40965;52.368;9.712;2023-02-08T14:23:00;103040.25;;;2.37;52.02
55068;BME280;40965;52.368;9.712;2023-02-08T14:25:40;103036.41;;;2.44;51.51
55068;BME280;40965;52.368;9.712;2023-02-08T14:28:23;103042.63;;;2.47;51.73
55068;BME280;40965;52.368;9.712;2023-02-08T14:30:59;103036.56;;;2.47;52.28
55068;BME280;40965;52.368;9.712;2023-02-08T14:33:33;103033.81;;;2.44;52.77